sensor_id;sensor_type;location;lat;lon;timestamp;pressure;altitude;pressure_sealevel;temperature;humidity
56737;BME280;42618;51.226;4.910;2023-05-10T00:01:35;49768.88;;;-146.94;100.00
56737;BME280;42618;51.226;4.910;2023-05-10T00:04:02;49774.84;;;-146.94;100.00
56737;BME280;42618;51.226;4.910;2023-05-10T00:06:29;49780.84;;;-146.94;100.00
56737;BME280;42618;51.226;4.910;2023-05-10T00:08:56;49778.84;;;-146.94;100.00
56737;BME280;42618;51.226;4.910;2023-05-10T00:11:23;49778.84;;;-146.94;100.00
56737;BME280;42618;51.226;4.910;2023-05-10T00:13:50;49794.78;;;-146.94;100.00
56737;BME280;42618;51.226;4.910;2023-05-10T00:16:17;49794.78;;;-146.94;100.00
56737;BME280;42618;51.226;4.910;2023-05-10T00:18:44;49764.88;;;-146.94;100.00
56737;BME280;42618;51.226;4.910;2023-05-10T00:21:10;49760.91;;;-146.94;100.00
56737;BME280;42618;51.226;4.910;2023-05-10T00:23:38;49766.88;;;-146.94;100.00
56737;BME280;42618;51.226;4.910;2023-05-10T00:26:05;49729.00;;;-146.94;100.00
56737;BME280;42618;51.226;4.910;2023-05-10T00:28:31;49784.81;;;-146.94;100.00
56737;BME280;42618;51.226;4.910;2023-05-10T00:30:58;49774.84;;;-146.94;100.00
56737;BME280;42618;51.226;4.910;2023-05-10T00:33:25;49764.88;;;-146.94;100.00
56737;BME280;42618;51.226;4.910;2023-05-10T00:35:52;49792.78;;;-146.94;100.00
56737;BME280;42618;51.226;4.910;2023-05-10T00:38:19;49776.84;;;-146.94;100.00
56737;BME280;42618;51.226;4.910;2023-05-10T00:40:45;49786.81;;;-146.94;100.00
56737;BME280;42618;51.226;4.910;2023-05-10T00:43:20;49792.78;;;-146.94;100.00
56737;BME280;42618;51.226;4.910;2023-05-10T00:45:47;49784.81;;;-146.94;100.00
56737;BME280;42618;51.226;4.910;2023-05-10T00:48:14;49774.84;;;-146.94;100.00
56737;BME280;42618;51.226;4.910;2023-05-10T00:50:41;49766.88;;;-146.94;100.00
56737;BME280;42618;51.226;4.910;2023-05-10T00:53:08;49810.75;;;-146.94;100.00
56737;BME280;42618;51.226;4.910;2023-05-10T00:55:35;49758.91;;;-146.94;100.00
56737;BME280;42618;51.226;4.910;2023-05-10T00:58:02;49784.81;;;-146.94;100.00
56737;BME280;42618;51.226;4.910;2023-05-10T01:00:29;49786.81;;;-146.94;100.00
56737;BME280;42618;51.226;4.910;2023-05-10T01:02:56;49764.88;;;-146.94;100.00
56737;BME280;42618;51.226;4.910;2023-05-10T01:05:23;49812.72;;;-146.94;100.00
56737;BME280;42618;51.226;4.910;2023-05-10T01:07:51;49790.81;;;-146.94;100.00
56737;BME280;42618;51.226;4.910;2023-05-10T01:10:18;49812.72;;;-146.94;100.00
56737;BME280;42618;51.226;4.910;2023-05-10T01:12:46;49804.75;;;-146.94;100.00
56737;BME280;42618;51.226;4.910;2023-05-10T01:15:14;49830.66;;;-146.94;100.00
56737;BME280;42618;51.226;4.910;2023-05-10T01:17:45;49788.81;;;-146.94;100.00
56737;BME280;42618;51.226;4.910;2023-05-10T01:20:14;49780.84;;;-146.94;100.00
56737;BME280;42618;51.226;4.910;2023-05-10T01:25:32;49786.81;;;-146.94;100.00
56737;BME280;42618;51.226;4.910;2023-05-10T01:34:17;49784.81;;;-146.94;100.00
56737;BME280;42618;51.226;4.910;2023-05-10T01:37:05;49776.84;;;-146.94;100.00
56737;BME280;42618;51.226;4.910;2023-05-10T01:42:54;49744.94;;;-146.94;100.00
56737;BME280;42618;51.226;4.910;2023-05-10T01:45:30;49768.88;;;-146.94;100.00
56737;BME280;42618;51.226;4.910;2023-05-10T01:48:10;49798.78;;;-146.94;100.00
56737;BME280;42618;51.226;4.910;2023-05-10T01:50:40;49770.88;;;-146.94;100.00
56737;BME280;42618;51.226;4.910;2023-05-10T01:53:11;49792.78;;;-146.94;100.00
56737;BME280;42618;51.226;4.910;2023-05-10T01:55:53;49784.81;;;-146.94;100.00
56737;BME280;42618;51.226;4.910;2023-05-10T01:58:30;49784.81;;;-146.94;100.00
56737;BME280;42618;51.226;4.910;2023-05-10T02:01:00;49786.81;;;-146.94;100.00
56737;BME280;42618;51.226;4.910;2023-05-10T02:03:28;49766.88;;;-146.94;100.00
56737;BME280;42618;51.226;4.910;2023-05-10T02:05:57;49758.91;;;-146.94;100.00
56737;BME280;42618;51.226;4.910;2023-05-10T02:08:26;49802.75;;;-146.94;100.00
56737;BME280;42618;51.226;4.910;2023-05-10T02:10:57;49778.84;;;-146.94;100.00
56737;BME280;42618;51.226;4.910;2023-05-10T02:13:26;49738.97;;;-146.94;100.00
56737;BME280;42618;51.226;4.910;2023-05-10T02:15:54;49798.78;;;-146.94;100.00
56737;BME280;42618;51.226;4.910;2023-05-10T02:18:23;49806.75;;;-146.94;100.00
56737;BME280;42618;51.226;4.910;2023-05-10T02:20:52;49778.84;;;-146.94;100.00
56737;BME280;42618;51.226;4.910;2023-05-10T02:23:20;49814.72;;;-146.94;100.00
56737;BME280;42618;51.226;4.910;2023-05-10T02:25:48;49806.75;;;-146.94;100.00
56737;BME280;42618;51.226;4.910;2023-05-10T02:28:16;49796.78;;;-146.94;100.00
56737;BME280;42618;51.226;4.910;2023-05-10T02:30:44;49778.84;;;-146.94;100.00
56737;BME280;42618;51.226;4.910;2023-05-10T02:33:13;49778.84;;;-146.94;100.00
56737;BME280;42618;51.226;4.910;2023-05-10T02:35:41;49768.88;;;-146.94;100.00
56737;BME280;42618;51.226;4.910;2023-05-10T02:38:08;49786.81;;;-146.94;100.00
56737;BME280;42618;51.226;4.910;2023-05-10T02:40:36;49806.75;;;-146.94;100.00
56737;BME280;42618;51.226;4.910;2023-05-10T02:43:06;49750.94;;;-146.94;100.00
56737;BME280;42618;51.226;4.910;2023-05-10T02:45:36;49778.84;;;-146.94;100.00
56737;BME280;42618;51.226;4.910;2023-05-10T02:48:05;49774.84;;;-146.94;100.00
56737;BME280;42618;51.226;4.910;2023-05-10T02:50:33;49770.88;;;-146.94;100.00
56737;BME280;42618;51.226;4.910;2023-05-10T02:53:01;49794.78;;;-146.94;100.00
56737;BME280;42618;51.226;4.910;2023-05-10T02:55:33;49798.78;;;-146.94;100.00
56737;BME280;42618;51.226;4.910;2023-05-10T02:58:03;49770.88;;;-146.94;100.00
56737;BME280;42618;51.226;4.910;2023-05-10T03:00:29;49806.75;;;-146.94;100.00
56737;BME280;42618;51.226;4.910;2023-05-10T03:02:57;49794.78;;;-146.94;100.00
56737;BME280;42618;51.226;4.910;2023-05-10T03:05:24;49818.72;;;-146.94;100.00
56737;BME280;42618;51.226;4.910;2023-05-10T03:07:52;49786.81;;;-146.94;100.00
56737;BME280;42618;51.226;4.910;2023-05-10T03:10:22;49790.81;;;-146.94;100.00
56737;BME280;42618;51.226;4.910;2023-05-10T03:13:25;49778.84;;;-146.94;100.00
56737;BME280;42618;51.226;4.910;2023-05-10T03:18:39;49792.78;;;-146.94;100.00
56737;BME280;42618;51.226;4.910;2023-05-10T03:21:11;49806.75;;;-146.94;100.00
56737;BME280;42618;51.226;4.910;2023-05-10T03:23:49;49786.81;;;-146.94;100.00
56737;BME280;42618;51.226;4.910;2023-05-10T03:26:20;49772.84;;;-146.94;100.00
56737;BME280;42618;51.226;4.910;2023-05-10T03:28:52;49774.84;;;-146.94;100.00
56737;BME280;42618;51.226;4.910;2023-05-10T03:31:20;49774.84;;;-146.94;100.00
56737;BME280;42618;51.226;4.910;2023-05-10T03:33:48;49794.78;;;-146.94;100.00
56737;BME280;42618;51.226;4.910;2023-05-10T03:36:20;49772.84;;;-146.94;100.00
56737;BME280;42618;51.226;4.910;2023-05-10T03:38:47;49778.84;;;-146.94;100.00
56737;BME280;42618;51.226;4.910;2023-05-10T03:41:14;49826.69;;;-146.94;100.00
56737;BME280;42618;51.226;4.910;2023-05-10T03:43:41;49776.84;;;-146.94;100.00
56737;BME280;42618;51.226;4.910;2023-05-10T03:46:08;49812.72;;;-146.94;100.00
56737;BME280;42618;51.226;4.910;2023-05-10T03:48:35;49788.81;;;-146.94;100.00
56737;BME280;42618;51.226;4.910;2023-05-10T03:51:01;49786.81;;;-146.94;100.00
56737;BME280;42618;51.226;4.910;2023-05-10T03:53:29;49804.75;;;-146.94;100.00
56737;BME280;42618;51.226;4.910;2023-05-10T03:55:55;49764.88;;;-146.94;100.00
56737;BME280;42618;51.226;4.910;2023-05-10T03:58:23;49810.75;;;-146.94;100.00
56737;BME280;42618;51.226;4.910;2023-05-10T04:00:51;49790.81;;;-146.94;100.00
56737;BME280;42618;51.226;4.910;2023-05-10T04:03:18;49790.81;;;-146.94;100.00
56737;BME280;42618;51.226;4.910;2023-05-10T04:05:45;49792.78;;;-146.94;100.00
56737;BME280;42618;51.226;4.910;2023-05-10T04:08:11;49792.78;;;-146.94;100.00
56737;BME280;42618;51.226;4.910;2023-05-10T04:10:38;49784.81;;;-146.94;100.00
56737;BME280;42618;51.226;4.910;2023-05-10T04:13:06;49794.78;;;-146.94;100.00
56737;BME280;42618;51.226;4.910;2023-05-10T04:15:32;49798.78;;;-146.94;100.00
56737;BME280;42618;51.226;4.910;2023-05-10T04:17:59;49784.81;;;-146.94;100.00
56737;BME280;42618;51.226;4.910;2023-05-10T04:20:26;49794.78;;;-146.94;100.00
56737;BME280;42618;51.226;4.910;2023-05-10T04:22:53;49838.66;;;-146.94;100.00
56737;BME280;42618;51.226;4.910;2023-05-10T04:25:20;49806.75;;;-146.94;100.00
56737;BME280;42618;51.226;4.910;2023-05-10T04:27:47;49798.78;;;-146.94;100.00
56737;BME280;42618;51.226;4.910;2023-05-10T04:30:13;49802.75;;;-146.94;100.00
56737;BME280;42618;51.226;4.910;2023-05-10T04:32:41;49794.78;;;-146.94;100.00
56737;BME280;42618;51.226;4.910;2023-05-10T04:35:08;49816.72;;;-146.94;100.00
56737;BME280;42618;51.226;4.910;2023-05-10T04:37:36;49762.88;;;-146.94;100.00
56737;BME280;42618;51.226;4.910;2023-05-10T04:40:03;49776.84;;;-146.94;100.00
56737;BME280;42618;51.226;4.910;2023-05-10T04:42:30;49786.81;;;-146.94;100.00
56737;BME280;42618;51.226;4.910;2023-05-10T04:44:57;49788.81;;;-146.94;100.00
56737;BME280;42618;51.226;4.910;2023-05-10T04:47:23;49764.88;;;-146.94;100.00
56737;BME280;42618;51.226;4.910;2023-05-10T04:49:50;49750.94;;;-146.94;100.00
56737;BME280;42618;51.226;4.910;2023-05-10T04:52:17;49758.91;;;-146.94;100.00
56737;BME280;42618;51.226;4.910;2023-05-10T04:54:44;49762.88;;;-146.94;100.00
56737;BME280;42618;51.226;4.910;2023-05-10T04:57:11;49808.75;;;-146.94;100.00
56737;BME280;42618;51.226;4.910;2023-05-10T04:59:37;49798.78;;;-146.94;100.00
56737;BME280;42618;51.226;4.910;2023-05-10T05:02:05;49782.81;;;-146.94;100.00
56737;BME280;42618;51.226;4.910;2023-05-10T05:04:31;49784.81;;;-146.94;100.00
56737;BME280;42618;51.226;4.910;2023-05-10T05:06:58;49768.88;;;-146.94;100.00
56737;BME280;42618;51.226;4.910;2023-05-10T05:09:25;49796.78;;;-146.94;100.00
56737;BME280;42618;51.226;4.910;2023-05-10T05:11:52;49806.75;;;-146.94;100.00
56737;BME280;42618;51.226;4.910;2023-05-10T05:14:18;49790.81;;;-146.94;100.00
56737;BME280;42618;51.226;4.910;2023-05-10T05:16:47;49806.75;;;-146.94;100.00
56737;BME280;42618;51.226;4.910;2023-05-10T05:19:14;49836.66;;;-146.94;100.00
56737;BME280;42618;51.226;4.910;2023-05-10T05:21:40;49798.78;;;-146.94;100.00
56737;BME280;42618;51.226;4.910;2023-05-10T05:24:08;49802.75;;;-146.94;100.00
56737;BME280;42618;51.226;4.910;2023-05-10T05:26:35;49790.81;;;-146.94;100.00
56737;BME280;42618;51.226;4.910;2023-05-10T05:29:01;49774.84;;;-146.94;100.00
56737;BME280;42618;51.226;4.910;2023-05-10T05:31:28;49772.84;;;-146.94;100.00
56737;BME280;42618;51.226;4.910;2023-05-10T05:33:55;49778.84;;;-146.94;100.00
56737;BME280;42618;51.226;4.910;2023-05-10T05:36:22;49782.81;;;-146.94;100.00
56737;BME280;42618;51.226;4.910;2023-05-10T05:38:49;49752.91;;;-146.94;100.00
56737;BME280;42618;51.226;4.910;2023-05-10T05:41:16;49810.75;;;-146.94;100.00
56737;BME280;42618;51.226;4.910;2023-05-10T05:43:42;49766.88;;;-146.94;100.00
56737;BME280;42618;51.226;4.910;2023-05-10T05:46:09;49762.88;;;-146.94;100.00
56737;BME280;42618;51.226;4.910;2023-05-10T05:48:36;49762.88;;;-146.94;100.00
56737;BME280;42618;51.226;4.910;2023-05-10T05:51:03;49798.78;;;-146.94;100.00
56737;BME280;42618;51.226;4.910;2023-05-10T05:53:32;49790.81;;;-146.94;100.00
56737;BME280;42618;51.226;4.910;2023-05-10T05:55:59;49778.84;;;-146.94;100.00
56737;BME280;42618;51.226;4.910;2023-05-10T05:58:26;49792.78;;;-146.94;100.00
56737;BME280;42618;51.226;4.910;2023-05-10T06:00:53;49764.88;;;-146.94;100.00
56737;BME280;42618;51.226;4.910;2023-05-10T06:03:20;49768.88;;;-146.94;100.00
56737;BME280;42618;51.226;4.910;2023-05-10T06:05:47;49786.81;;;-146.94;100.00
56737;BME280;42618;51.226;4.910;2023-05-10T06:08:14;49764.88;;;-146.94;100.00
56737;BME280;42618;51.226;4.910;2023-05-10T06:10:41;49758.91;;;-146.94;100.00
56737;BME280;42618;51.226;4.910;2023-05-10T06:13:08;49784.81;;;-146.94;100.00
56737;BME280;42618;51.226;4.910;2023-05-10T06:15:35;49754.91;;;-146.94;100.00
56737;BME280;42618;51.226;4.910;2023-05-10T06:18:01;49800.78;;;-146.94;100.00
56737;BME280;42618;51.226;4.910;2023-05-10T06:20:28;49750.94;;;-146.94;100.00
56737;BME280;42618;51.226;4.910;2023-05-10T06:22:55;49786.81;;;-146.94;100.00
56737;BME280;42618;51.226;4.910;2023-05-10T06:25:22;49778.84;;;-146.94;100.00
56737;BME280;42618;51.226;4.910;2023-05-10T06:27:48;49780.84;;;-146.94;100.00
56737;BME280;42618;51.226;4.910;2023-05-10T06:30:19;49770.88;;;-146.94;100.00
56737;BME280;42618;51.226;4.910;2023-05-10T06:32:46;49790.81;;;-146.94;100.00
56737;BME280;42618;51.226;4.910;2023-05-10T06:35:13;49764.88;;;-146.94;100.00
56737;BME280;42618;51.226;4.910;2023-05-10T06:37:40;49782.81;;;-146.94;100.00
56737;BME280;42618;51.226;4.910;2023-05-10T06:40:07;49798.78;;;-146.94;100.00
56737;BME280;42618;51.226;4.910;2023-05-10T06:42:34;49788.81;;;-146.94;100.00
56737;BME280;42618;51.226;4.910;2023-05-10T06:45:02;49786.81;;;-146.94;100.00
56737;BME280;42618;51.226;4.910;2023-05-10T06:47:28;49786.81;;;-146.94;100.00
56737;BME280;42618;51.226;4.910;2023-05-10T06:49:55;49758.91;;;-146.94;100.00
56737;BME280;42618;51.226;4.910;2023-05-10T06:52:22;49784.81;;;-146.94;100.00
56737;BME280;42618;51.226;4.910;2023-05-10T06:54:49;49794.78;;;-146.94;100.00
56737;BME280;42618;51.226;4.910;2023-05-10T06:57:17;49802.75;;;-146.94;100.00
56737;BME280;42618;51.226;4.910;2023-05-10T06:59:57;49782.81;;;-146.94;100.00
56737;BME280;42618;51.226;4.910;2023-05-10T07:02:24;49774.84;;;-146.94;100.00
56737;BME280;42618;51.226;4.910;2023-05-10T07:04:51;49762.88;;;-146.94;100.00
56737;BME280;42618;51.226;4.910;2023-05-10T07:07:18;49800.78;;;-146.94;100.00
56737;BME280;42618;51.226;4.910;2023-05-10T07:09:45;49758.91;;;-146.94;100.00
56737;BME280;42618;51.226;4.910;2023-05-10T07:12:12;49780.84;;;-146.94;100.00
56737;BME280;42618;51.226;4.910;2023-05-10T07:14:41;49774.84;;;-146.94;100.00
56737;BME280;42618;51.226;4.910;2023-05-10T07:17:08;49762.88;;;-146.94;100.00
56737;BME280;42618;51.226;4.910;2023-05-10T07:19:35;49756.91;;;-146.94;100.00
56737;BME280;42618;51.226;4.910;2023-05-10T07:22:02;49742.94;;;-146.94;100.00
56737;BME280;42618;51.226;4.910;2023-05-10T07:24:29;49790.81;;;-146.94;100.00
56737;BME280;42618;51.226;4.910;2023-05-10T07:26:57;49727.00;;;-146.94;100.00
56737;BME280;42618;51.226;4.910;2023-05-10T07:29:24;49727.00;;;-146.94;100.00
56737;BME280;42618;51.226;4.910;2023-05-10T07:31:51;49746.94;;;-146.94;100.00
56737;BME280;42618;51.226;4.910;2023-05-10T07:34:18;49750.94;;;-146.94;100.00
56737;BME280;42618;51.226;4.910;2023-05-10T07:36:45;49746.94;;;-146.94;100.00
56737;BME280;42618;51.226;4.910;2023-05-10T07:39:12;49754.91;;;-146.94;100.00
56737;BME280;42618;51.226;4.910;2023-05-10T07:41:50;49766.88;;;-146.94;100.00
56737;BME280;42618;51.226;4.910;2023-05-10T07:44:16;49778.84;;;-146.94;99.09
56737;BME280;42618;51.226;4.910;2023-05-10T07:46:46;49746.94;;;-146.94;98.28
56737;BME280;42618;51.226;4.910;2023-05-10T07:49:13;49764.88;;;-146.94;98.38
56737;BME280;42618;51.226;4.910;2023-05-10T07:51:39;49770.88;;;-146.94;99.45
56737;BME280;42618;51.226;4.910;2023-05-10T07:54:06;49762.88;;;-146.94;99.68
56737;BME280;42618;51.226;4.910;2023-05-10T07:56:33;49719.03;;;-146.94;100.00
56737;BME280;42618;51.226;4.910;2023-05-10T07:59:02;49740.97;;;-146.94;100.00
56737;BME280;42618;51.226;4.910;2023-05-10T08:01:31;49756.91;;;-146.94;100.00
56737;BME280;42618;51.226;4.910;2023-05-10T08:03:58;49754.91;;;-146.94;99.10
56737;BME280;42618;51.226;4.910;2023-05-10T08:06:25;49736.97;;;-146.94;97.26
56737;BME280;42618;51.226;4.910;2023-05-10T08:08:56;49752.91;;;-146.94;98.05
56737;BME280;42618;51.226;4.910;2023-05-10T08:11:24;49770.88;;;-146.94;97.91
56737;BME280;42618;51.226;4.910;2023-05-10T08:13:51;49746.94;;;-146.94;96.83
56737;BME280;42618;51.226;4.910;2023-05-10T08:16:18;49754.91;;;-146.94;96.49
56737;BME280;42618;51.226;4.910;2023-05-10T08:18:46;49719.03;;;-146.94;96.28
56737;BME280;42618;51.226;4.910;2023-05-10T08:21:14;49738.97;;;-146.94;96.03
56737;BME280;42618;51.226;4.910;2023-05-10T08:23:41;49727.00;;;-146.94;95.92
56737;BME280;42618;51.226;4.910;2023-05-10T08:26:10;49758.91;;;-146.94;97.98
56737;BME280;42618;51.226;4.910;2023-05-10T08:28:37;49774.84;;;-146.94;98.78
56737;BME280;42618;51.226;4.910;2023-05-10T08:31:04;49770.88;;;-146.94;98.32
56737;BME280;42618;51.226;4.910;2023-05-10T08:33:31;49750.94;;;-146.94;97.94
56737;BME280;42618;51.226;4.910;2023-05-10T08:35:58;49756.91;;;-146.94;97.33
56737;BME280;42618;51.226;4.910;2023-05-10T08:38:25;49750.94;;;-146.94;98.43
56737;BME280;42618;51.226;4.910;2023-05-10T08:40:54;49758.91;;;-146.94;97.55
56737;BME280;42618;51.226;4.910;2023-05-10T08:43:28;49744.94;;;-146.94;97.50
56737;BME280;42618;51.226;4.910;2023-05-10T08:46:00;49738.97;;;-146.94;97.03
56737;BME280;42618;51.226;4.910;2023-05-10T08:48:29;49713.06;;;-146.94;95.69
56737;BME280;42618;51.226;4.910;2023-05-10T08:50:58;49772.84;;;-146.94;95.77
56737;BME280;42618;51.226;4.910;2023-05-10T08:53:26;49742.94;;;-146.94;95.15
56737;BME280;42618;51.226;4.910;2023-05-10T08:55:53;49713.06;;;-146.94;94.26
56737;BME280;42618;51.226;4.910;2023-05-10T08:58:20;49711.06;;;-146.94;92.21
56737;BME280;42618;51.226;4.910;2023-05-10T09:00:48;49770.88;;;-146.94;91.62
56737;BME280;42618;51.226;4.910;2023-05-10T09:03:17;49719.03;;;-146.94;91.25
56737;BME280;42618;51.226;4.910;2023-05-10T09:05:44;49727.00;;;-146.94;90.28
56737;BME280;42618;51.226;4.910;2023-05-10T09:08:12;49740.97;;;-146.94;89.05
56737;BME280;42618;51.226;4.910;2023-05-10T09:10:40;49740.97;;;-146.94;85.80
56737;BME280;42618;51.226;4.910;2023-05-10T09:13:10;49752.91;;;-146.94;86.66
56737;BME280;42618;51.226;4.910;2023-05-10T09:15:38;49679.16;;;-146.94;87.35
56737;BME280;42618;51.226;4.910;2023-05-10T09:18:05;49711.06;;;-146.94;83.75
56737;BME280;42618;51.226;4.910;2023-05-10T09:20:31;49715.03;;;-146.94;84.38
56737;BME280;42618;51.226;4.910;2023-05-10T09:22:58;49687.13;;;-146.94;84.13
56737;BME280;42618;51.226;4.910;2023-05-10T09:25:25;49725.00;;;-146.94;81.29
56737;BME280;42618;51.226;4.910;2023-05-10T09:27:52;49738.97;;;-146.94;80.05
56737;BME280;42618;51.226;4.910;2023-05-10T09:30:26;49738.97;;;-146.94;78.11
56737;BME280;42618;51.226;4.910;2023-05-10T09:32:54;49695.09;;;-146.94;79.30
56737;BME280;42618;51.226;4.910;2023-05-10T09:35:22;49697.09;;;-146.94;78.68
56737;BME280;42618;51.226;4.910;2023-05-10T09:37:54;49703.09;;;-146.94;76.82
56737;BME280;42618;51.226;4.910;2023-05-10T09:40:23;49727.00;;;-146.94;79.42
56737;BME280;42618;51.226;4.910;2023-05-10T09:45:29;49723.03;;;-146.94;79.39
56737;BME280;42618;51.226;4.910;2023-05-10T09:47:56;49709.06;;;-146.94;81.80
56737;BME280;42618;51.226;4.910;2023-05-10T09:50:23;49746.94;;;-146.94;79.86
56737;BME280;42618;51.226;4.910;2023-05-10T09:52:54;49685.13;;;-146.94;80.30
56737;BME280;42618;51.226;4.910;2023-05-10T09:55:24;49697.09;;;-146.94;80.74
56737;BME280;42618;51.226;4.910;2023-05-10T09:58:01;49719.03;;;-146.94;83.03
56737;BME280;42618;51.226;4.910;2023-05-10T10:00:35;49675.19;;;-146.94;82.94
56737;BME280;42618;51.226;4.910;2023-05-10T10:03:03;49699.09;;;-146.94;80.46
56737;BME280;42618;51.226;4.910;2023-05-10T10:05:31;49740.97;;;-146.94;82.39
56737;BME280;42618;51.226;4.910;2023-05-10T10:07:58;49754.91;;;-146.94;84.23
56737;BME280;42618;51.226;4.910;2023-05-10T10:10:26;49685.13;;;-146.94;85.19
56737;BME280;42618;51.226;4.910;2023-05-10T10:12:54;49705.06;;;-146.94;87.24
56737;BME280;42618;51.226;4.910;2023-05-10T10:15:21;49689.13;;;-146.94;85.84
56737;BME280;42618;51.226;4.910;2023-05-10T10:17:49;49711.06;;;-146.94;85.39
56737;BME280;42618;51.226;4.910;2023-05-10T10:20:17;49715.03;;;-146.94;86.43
56737;BME280;42618;51.226;4.910;2023-05-10T10:22:44;49695.09;;;-146.94;85.88
56737;BME280;42618;51.226;4.910;2023-05-10T10:25:15;49715.03;;;-146.94;86.13
56737;BME280;42618;51.226;4.910;2023-05-10T10:35:24;49679.16;;;-146.94;85.97
56737;BME280;42618;51.226;4.910;2023-05-10T10:37:51;49762.88;;;-146.94;86.97
56737;BME280;42618;51.226;4.910;2023-05-10T10:42:52;49719.03;;;-146.94;88.92
56737;BME280;42618;51.226;4.910;2023-05-10T10:45:20;49742.94;;;-146.94;89.32
56737;BME280;42618;51.226;4.910;2023-05-10T10:47:47;49691.13;;;-146.94;89.17
56737;BME280;42618;51.226;4.910;2023-05-10T10:50:14;49756.91;;;-146.94;89.59
56737;BME280;42618;51.226;4.910;2023-05-10T10:52:43;49746.94;;;-146.94;89.10
56737;BME280;42618;51.226;4.910;2023-05-10T10:55:18;49695.09;;;-146.94;88.80
56737;BME280;42618;51.226;4.910;2023-05-10T10:57:50;49733.00;;;-146.94;88.45
56737;BME280;42618;51.226;4.910;2023-05-10T11:00:37;49703.09;;;-146.94;87.09
56737;BME280;42618;51.226;4.910;2023-05-10T11:03:10;49707.06;;;-146.94;85.11
56737;BME280;42618;51.226;4.910;2023-05-10T11:05:50;49703.09;;;-146.94;85.56
56737;BME280;42618;51.226;4.910;2023-05-10T11:08:29;49736.97;;;-146.94;85.11
56737;BME280;42618;51.226;4.910;2023-05-10T11:13:33;49723.03;;;-146.94;85.39
56737;BME280;42618;51.226;4.910;2023-05-10T11:18:40;49731.00;;;-146.94;83.92
56737;BME280;42618;51.226;4.910;2023-05-10T11:21:17;49709.06;;;-146.94;84.71
56737;BME280;42618;51.226;4.910;2023-05-10T11:26:11;49713.06;;;-146.94;85.16
56737;BME280;42618;51.226;4.910;2023-05-10T11:28:46;49685.13;;;-146.94;84.28
56737;BME280;42618;51.226;4.910;2023-05-10T11:31:14;49715.03;;;-146.94;81.50
56737;BME280;42618;51.226;4.910;2023-05-10T11:33:46;49719.03;;;-146.94;82.57
56737;BME280;42618;51.226;4.910;2023-05-10T11:36:18;49675.19;;;-146.94;80.44
56737;BME280;42618;51.226;4.910;2023-05-10T11:38:46;49723.03;;;-146.94;82.16
56737;BME280;42618;51.226;4.910;2023-05-10T11:41:13;49709.06;;;-146.94;82.59
56737;BME280;42618;51.226;4.910;2023-05-10T11:43:40;49713.06;;;-146.94;82.49
56737;BME280;42618;51.226;4.910;2023-05-10T11:46:10;49707.06;;;-146.94;80.12
56737;BME280;42618;51.226;4.910;2023-05-10T11:48:41;49723.03;;;-146.94;79.25
56737;BME280;42618;51.226;4.910;2023-05-10T11:51:09;49703.09;;;-146.94;80.24
56737;BME280;42618;51.226;4.910;2023-05-10T11:53:37;49695.09;;;-146.94;81.00
56737;BME280;42618;51.226;4.910;2023-05-10T11:56:08;49729.00;;;-146.94;79.98
56737;BME280;42618;51.226;4.910;2023-05-10T11:58:37;49713.06;;;-146.94;78.39
56737;BME280;42618;51.226;4.910;2023-05-10T12:01:05;49705.06;;;-146.94;78.85
56737;BME280;42618;51.226;4.910;2023-05-10T12:03:33;49715.03;;;-146.94;78.95
56737;BME280;42618;51.226;4.910;2023-05-10T12:06:01;49707.06;;;-146.94;78.29
56737;BME280;42618;51.226;4.910;2023-05-10T12:08:30;49671.19;;;-146.94;78.36
56737;BME280;42618;51.226;4.910;2023-05-10T12:11:06;49681.16;;;-146.94;77.53
56737;BME280;42618;51.226;4.910;2023-05-10T12:13:37;49697.09;;;-146.94;78.30
56737;BME280;42618;51.226;4.910;2023-05-10T12:16:15;49713.06;;;-146.94;78.36
56737;BME280;42618;51.226;4.910;2023-05-10T12:18:42;49685.13;;;-146.94;79.90
56737;BME280;42618;51.226;4.910;2023-05-10T12:21:10;49711.06;;;-146.94;78.50
56737;BME280;42618;51.226;4.910;2023-05-10T12:23:39;49719.03;;;-146.94;78.68
56737;BME280;42618;51.226;4.910;2023-05-10T12:26:05;49693.13;;;-146.94;78.70
56737;BME280;42618;51.226;4.910;2023-05-10T12:28:33;49707.06;;;-146.94;79.90
56737;BME280;42618;51.226;4.910;2023-05-10T12:31:02;49687.13;;;-146.94;79.17
56737;BME280;42618;51.226;4.910;2023-05-10T12:33:47;49669.19;;;-146.94;75.65
56737;BME280;42618;51.226;4.910;2023-05-10T12:36:16;49635.31;;;-146.94;73.26
56737;BME280;42618;51.226;4.910;2023-05-10T12:38:45;49683.16;;;-146.94;70.21
56737;BME280;42618;51.226;4.910;2023-05-10T12:41:16;49697.09;;;-146.94;68.95
56737;BME280;42618;51.226;4.910;2023-05-10T12:43:43;49695.09;;;-146.94;68.82
56737;BME280;42618;51.226;4.910;2023-05-10T12:46:12;49681.16;;;-146.94;69.84
56737;BME280;42618;51.226;4.910;2023-05-10T12:48:40;49677.16;;;-146.94;71.41
56737;BME280;42618;51.226;4.910;2023-05-10T12:51:08;49655.25;;;-146.94;68.04
56737;BME280;42618;51.226;4.910;2023-05-10T12:53:36;49635.31;;;-146.94;67.97
56737;BME280;42618;51.226;4.910;2023-05-10T12:56:03;49639.28;;;-146.94;64.35
56737;BME280;42618;51.226;4.910;2023-05-10T12:58:30;49653.25;;;-146.94;64.89
56737;BME280;42618;51.226;4.910;2023-05-10T13:01:01;49635.31;;;-146.94;64.70
56737;BME280;42618;51.226;4.910;2023-05-10T13:03:29;49655.25;;;-146.94;63.12
56737;BME280;42618;51.226;4.910;2023-05-10T13:05:55;49675.19;;;-146.94;59.48
56737;BME280;42618;51.226;4.910;2023-05-10T13:08:22;49657.22;;;-146.94;58.78
56737;BME280;42618;51.226;4.910;2023-05-10T13:10:49;49615.38;;;-146.94;57.95
56737;BME280;42618;51.226;4.910;2023-05-10T13:13:16;49645.28;;;-146.94;57.00
56737;BME280;42618;51.226;4.910;2023-05-10T13:15:42;49643.28;;;-146.94;52.55